Time;durP1;ratioP1;P1;durP2;ratioP2;P2;SDS_P1;SDS_P2;PMS_P1;PMS_P2;Temp;Humidity;BMP_temperature;BMP_pressure;BME280_temperature;BME280_humidity;BME280_pressure;Samples;Min_cycle;Max_cycle;Signal;HPM_P1;HPM_P2
2021/10/29 00:00:55;;;;;;;31.80;19.40;;;;;;;;;;5090879;28;20484;-66
2021/10/29 00:03:22;;;;;;;34.90;18.63;;;;;;;;;;5072341;28;20039;-65
2021/10/29 00:05:48;;;;;;;33.63;18.95;;;;;;;;;;5090363;28;20047;-66
2021/10/29 00:08:14;;;;;;;30.85;17.38;;;;;;;;;;5072224;28;20027;-65
2021/10/29 00:10:41;;;;;;;33.85;18.92;;;;;;;;;;5072283;28;20059;-65
2021/10/29 00:13:07;;;;;;;32.47;18.23;;;;;;;;;;5090224;28;20032;-66
2021/10/29 00:15:33;;;;;;;32.75;18.40;;;;;;;;;;5090090;28;20032;-65
2021/10/29 00:17:59;;;;;;;33.83;17.58;;;;;;;;;;5090289;28;20032;-66
2021/10/29 00:20:26;;;;;;;31.02;17.70;;;;;;;;;;5072085;28;20024;-66
2021/10/29 00:22:52;;;;;;;31.13;17.65;;;;;;;;;;5090241;28;20028;-65
2021/10/29 00:25:17;;;;;;;34.80;20.00;;;;;;;;;;5072123;28;20028;-66
2021/10/29 00:27:44;;;;;;;31.65;18.13;;;;;;;;;;5090291;28;20484;-65
2021/10/29 00:30:10;;;;;;;32.53;18.33;;;;;;;;;;5090546;28;20099;-65
2021/10/29 00:32:36;;;;;;;35.47;20.58;;;;;;;;;;5090407;28;20472;-66
2021/10/29 00:35:02;;;;;;;34.38;17.65;;;;;;;;;;5072485;28;20031;-67
2021/10/29 00:37:30;;;;;;;34.25;18.85;;;;;;;;;;5072179;28;20030;-66
2021/10/29 00:39:56;;;;;;;31.50;18.10;;;;;;;;;;5090661;28;20027;-67
2021/10/29 00:42:22;;;;;;;31.33;17.95;;;;;;;;;;5090266;28;20270;-67
2021/10/29 00:44:48;;;;;;;31.25;16.38;;;;;;;;;;5090444;28;20052;-67
2021/10/29 00:47:14;;;;;;;33.88;17.38;;;;;;;;;;5090198;28;20082;-67
2021/10/29 00:49:41;;;;;;;31.83;17.20;;;;;;;;;;5072114;28;20020;-66
2021/10/29 00:52:07;;;;;;;33.35;17.70;;;;;;;;;;5090266;28;20020;-67
2021/10/29 00:54:33;;;;;;;31.40;16.05;;;;;;;;;;5090147;28;20095;-67
2021/10/29 00:56:59;;;;;;;28.20;16.10;;;;;;;;;;5071921;28;20128;-67
2021/10/29 00:59:26;;;;;;;32.78;17.27;;;;;;;;;;5072224;28;20016;-66
2021/10/29 01:01:52;;;;;;;32.00;17.05;;;;;;;;;;5073695;28;20047;-67
2021/10/29 01:04:18;;;;;;;30.85;17.15;;;;;;;;;;5093847;28;20568;-67
2021/10/29 01:06:44;;;;;;;32.42;17.05;;;;;;;;;;5093465;28;20580;-66
2021/10/29 01:09:11;;;;;;;31.60;17.08;;;;;;;;;;5075527;28;20020;-66
2021/10/29 01:11:38;;;;;;;29.35;15.98;;;;;;;;;;5075397;28;20020;-66
2021/10/29 01:14:05;;;;;;;27.60;16.27;;;;;;;;;;5093355;28;20027;-66
2021/10/29 01:16:31;;;;;;;29.52;16.38;;;;;;;;;;5093165;28;20035;-67
2021/10/29 01:18:57;;;;;;;32.03;17.10;;;;;;;;;;5093437;28;20024;-67
2021/10/29 01:21:23;;;;;;;32.53;16.85;;;;;;;;;;5075034;28;20020;-66
2021/10/29 01:23:49;;;;;;;30.13;16.40;;;;;;;;;;5093032;28;20020;-67
2021/10/29 01:26:16;;;;;;;29.33;16.95;;;;;;;;;;5093028;28;20078;-67
2021/10/29 01:28:42;;;;;;;27.98;16.15;;;;;;;;;;5093199;28;20464;-67
2021/10/29 01:31:08;;;;;;;32.83;17.05;;;;;;;;;;5074890;28;20123;-66
2021/10/29 01:33:34;;;;;;;30.83;17.13;;;;;;;;;;5074969;28;20536;-66
2021/10/29 01:36:01;;;;;;;30.77;16.90;;;;;;;;;;5092877;28;20020;-67
2021/10/29 01:38:35;;;;;;;30.38;15.75;;;;;;;;;;5074788;28;20400;-67
2021/10/29 01:41:01;;;;;;;29.55;16.02;;;;;;;;;;5074815;28;20028;-66
2021/10/29 01:43:27;;;;;;;28.33;16.23;;;;;;;;;;5092856;28;20077;-66
2021/10/29 01:45:54;;;;;;;31.50;16.05;;;;;;;;;;5074343;28;20115;-66
2021/10/29 01:48:20;;;;;;;29.27;15.50;;;;;;;;;;5092799;28;20082;-67
2021/10/29 01:50:46;;;;;;;31.58;17.65;;;;;;;;;;5092705;28;20020;-66
2021/10/29 01:53:11;;;;;;;29.13;15.27;;;;;;;;;;5092869;28;20028;-67
2021/10/29 01:55:37;;;;;;;29.70;15.80;;;;;;;;;;5074412;28;20020;-66
2021/10/29 01:58:03;;;;;;;30.67;15.38;;;;;;;;;;5093072;28;20082;-66
2021/10/29 02:00:29;;;;;;;28.20;15.88;;;;;;;;;;5075087;28;20024;-66
2021/10/29 02:02:55;;;;;;;35.75;16.60;;;;;;;;;;5074484;28;20032;-65
2021/10/29 02:05:22;;;;;;;30.90;15.85;;;;;;;;;;5092475;28;20032;-66
2021/10/29 02:07:48;;;;;;;28.90;16.10;;;;;;;;;;5092210;28;20047;-66
2021/10/29 02:10:13;;;;;;;31.63;16.33;;;;;;;;;;5092454;28;20472;-66
2021/10/29 02:12:40;;;;;;;31.23;16.90;;;;;;;;;;5073547;28;20031;-67
2021/10/29 02:15:07;;;;;;;28.42;15.73;;;;;;;;;;5073930;28;20505;-67
2021/10/29 02:17:33;;;;;;;27.77;15.75;;;;;;;;;;5073740;28;20032;-66
2021/10/29 02:19:59;;;;;;;29.33;15.15;;;;;;;;;;5092636;28;20053;-66
2021/10/29 02:22:26;;;;;;;28.90;15.65;;;;;;;;;;5092582;28;20020;-66
2021/10/29 02:24:52;;;;;;;30.10;15.98;;;;;;;;;;5074338;28;20024;-67
2021/10/29 02:27:18;;;;;;;28.45;15.23;;;;;;;;;;5092277;28;20072;-67
2021/10/29 02:29:44;;;;;;;29.20;16.20;;;;;;;;;;5091852;28;20117;-66
2021/10/29 02:32:10;;;;;;;27.35;14.63;;;;;;;;;;5092025;28;20027;-65
2021/10/29 02:34:36;;;;;;;28.23;15.77;;;;;;;;;;5074545;28;20024;-66
2021/10/29 02:37:02;;;;;;;27.50;14.88;;;;;;;;;;5091971;28;20023;-65
2021/10/29 02:39:28;;;;;;;29.55;15.70;;;;;;;;;;5092045;28;20020;-66
2021/10/29 02:41:54;;;;;;;28.70;15.15;;;;;;;;;;5092296;28;20020;-66
2021/10/29 02:44:20;;;;;;;29.15;16.52;;;;;;;;;;5074217;28;20016;-66
2021/10/29 02:46:46;;;;;;;29.02;16.55;;;;;;;;;;5092372;28;20091;-66
2021/10/29 02:49:12;;;;;;;32.85;17.35;;;;;;;;;;5074447;28;20055;-66
2021/10/29 02:51:38;;;;;;;30.05;15.80;;;;;;;;;;5074346;28;20064;-67
2021/10/29 02:54:04;;;;;;;31.25;17.92;;;;;;;;;;5074454;28;20031;-66
2021/10/29 02:56:30;;;;;;;27.33;15.32;;;;;;;;;;5074123;28;20020;-66
2021/10/29 02:58:56;;;;;;;29.02;15.25;;;;;;;;;;5092274;28;20069;-66
2021/10/29 03:01:22;;;;;;;27.95;14.80;;;;;;;;;;5092420;28;20116;-66
2021/10/29 03:03:48;;;;;;;29.23;15.57;;;;;;;;;;5091955;28;20035;-67
2021/10/29 03:06:14;;;;;;;28.25;15.68;;;;;;;;;;5092398;28;20020;-66
2021/10/29 03:08:40;;;;;;;28.00;15.70;;;;;;;;;;5093336;28;20047;-67
2021/10/29 03:11:06;;;;;;;31.88;17.05;;;;;;;;;;5093524;28;20073;-66
2021/10/29 03:13:32;;;;;;;27.90;15.27;;;;;;;;;;5094336;28;20454;-68
2021/10/29 03:15:58;;;;;;;29.00;16.38;;;;;;;;;;5092253;28;20028;-66
2021/10/29 03:18:24;;;;;;;28.38;15.63;;;;;;;;;;5073095;28;20039;-67
2021/10/29 03:20:51;;;;;;;29.95;14.63;;;;;;;;;;5073260;28;20027;-67
2021/10/29 03:23:17;;;;;;;29.08;15.95;;;;;;;;;;5091252;28;20028;-66
2021/10/29 03:25:44;;;;;;;29.02;16.15;;;;;;;;;;5090840;28;20016;-66
2021/10/29 03:28:10;;;;;;;27.35;14.15;;;;;;;;;;5072993;28;20032;-66
2021/10/29 03:30:37;;;;;;;28.33;16.13;;;;;;;;;;5091097;28;20454;-66
2021/10/29 03:33:03;;;;;;;27.17;14.65;;;;;;;;;;5090992;28;20070;-67
2021/10/29 03:35:29;;;;;;;28.90;15.05;;;;;;;;;;5091129;28;20198;-67
2021/10/29 03:48:16;;;;;;;27.77;14.20;;;;;;;;;;5092190;28;20032;-66
2021/10/29 03:50:47;;;;;;;29.48;15.20;;;;;;;;;;5074218;28;20491;-65
2021/10/29 03:53:33;;;;;;;30.30;14.65;;;;;;;;;;5091956;28;20474;-65
2021/10/29 03:56:00;;;;;;;27.73;15.57;;;;;;;;;;5091819;28;20104;-65
2021/10/29 03:58:26;;;;;;;25.42;13.88;;;;;;;;;;5091221;28;20051;-65
2021/10/29 04:00:52;;;;;;;26.30;14.15;;;;;;;;;;5119737;22;20040;-65
2021/10/29 04:03:18;;;;;;;26.88;15.10;;;;;;;;;;5090044;28;20032;-66
2021/10/29 04:05:45;;;;;;;27.70;15.30;;;;;;;;;;5072416;28;20024;-65
2021/10/29 04:08:11;;;;;;;26.85;14.80;;;;;;;;;;5090624;28;20031;-65
2021/10/29 04:10:43;;;;;;;25.40;14.10;;;;;;;;;;5090749;28;20020;-65
2021/10/29 04:13:11;;;;;;;29.17;14.98;;;;;;;;;;5072230;28;20024;-65
2021/10/29 04:15:38;;;;;;;26.58;14.23;;;;;;;;;;5090232;28;20021;-65
2021/10/29 04:18:05;;;;;;;25.88;13.52;;;;;;;;;;5090317;28;20028;-65
2021/10/29 04:20:31;;;;;;;25.98;14.65;;;;;;;;;;5090169;28;20020;-65
2021/10/29 04:22:57;;;;;;;29.88;15.55;;;;;;;;;;5090473;28;20031;-65
2021/10/29 04:25:23;;;;;;;26.02;14.52;;;;;;;;;;5090085;28;20525;-66
2021/10/29 04:27:56;;;;;;;26.27;13.32;;;;;;;;;;5072122;28;20040;-65
2021/10/29 04:30:24;;;;;;;25.23;13.93;;;;;;;;;;5090304;28;20027;-65
2021/10/29 04:32:50;;;;;;;25.25;13.95;;;;;;;;;;5072340;28;20111;-65
2021/10/29 04:35:16;;;;;;;25.42;14.10;;;;;;;;;;5089833;28;20105;-66
2021/10/29 04:37:42;;;;;;;26.52;14.60;;;;;;;;;;5093282;28;20464;-65
2021/10/29 04:40:09;;;;;;;25.50;13.38;;;;;;;;;;5094063;28;20034;-67
2021/10/29 04:42:35;;;;;;;26.63;14.23;;;;;;;;;;5094136;28;20351;-64
2021/10/29 04:45:01;;;;;;;29.98;15.40;;;;;;;;;;5093516;28;20332;-64
2021/10/29 04:47:28;;;;;;;26.83;14.18;;;;;;;;;;5075658;28;20020;-63
2021/10/29 04:49:54;;;;;;;29.00;14.82;;;;;;;;;;5075700;28;20074;-63
2021/10/29 04:52:20;;;;;;;24.85;14.40;;;;;;;;;;5093629;28;20016;-65
2021/10/29 04:54:46;;;;;;;27.70;13.95;;;;;;;;;;5093557;28;20028;-66
2021/10/29 04:57:12;;;;;;;29.05;14.55;;;;;;;;;;5075574;28;20550;-66
2021/10/29 04:59:38;;;;;;;24.50;12.75;;;;;;;;;;5093215;28;20039;-65
2021/10/29 05:02:04;;;;;;;31.67;18.33;;;;;;;;;;5093226;28;20467;-65
2021/10/29 05:04:30;;;;;;;27.50;14.40;;;;;;;;;;5093187;28;20046;-65
2021/10/29 05:06:56;;;;;;;24.95;13.13;;;;;;;;;;5093600;28;20024;-65
2021/10/29 05:09:22;;;;;;;24.65;13.60;;;;;;;;;;5093531;28;20027;-65
2021/10/29 05:11:48;;;;;;;23.92;13.20;;;;;;;;;;5075325;28;20514;-64
2021/10/29 05:14:14;;;;;;;24.77;13.20;;;;;;;;;;5074960;28;20036;-65
2021/10/29 05:16:40;;;;;;;24.55;13.05;;;;;;;;;;5093481;28;20364;-66
2021/10/29 05:19:06;;;;;;;23.40;12.23;;;;;;;;;;5075193;28;20032;-66
2021/10/29 05:21:32;;;;;;;24.08;12.60;;;;;;;;;;5075032;28;20036;-65
2021/10/29 05:23:58;;;;;;;23.92;13.38;;;;;;;;;;5093264;28;20111;-66
2021/10/29 05:26:24;;;;;;;24.80;13.05;;;;;;;;;;5075257;28;20126;-65
2021/10/29 05:28:50;;;;;;;24.08;12.52;;;;;;;;;;5093300;28;20031;-66
2021/10/29 05:31:16;;;;;;;22.52;11.77;;;;;;;;;;5075477;28;20043;-65
2021/10/29 05:33:42;;;;;;;22.92;12.38;;;;;;;;;;5093434;28;20475;-66
2021/10/29 05:36:08;;;;;;;23.40;13.18;;;;;;;;;;5095604;28;20119;-65
2021/10/29 05:38:35;;;;;;;24.83;12.63;;;;;;;;;;5096087;28;20024;-65
2021/10/29 05:41:01;;;;;;;25.13;13.35;;;;;;;;;;5096241;28;20020;-63
2021/10/29 05:43:28;;;;;;;25.80;12.75;;;;;;;;;;5097919;28;20020;-65
2021/10/29 05:45:54;;;;;;;26.95;12.57;;;;;;;;;;5099207;28;20031;-65
2021/10/29 05:48:20;;;;;;;25.80;13.05;;;;;;;;;;5099072;28;20028;-65
2021/10/29 05:50:49;;;;;;;27.50;12.85;;;;;;;;;;5097447;28;20048;-65
2021/10/29 05:53:35;;;;;;;24.65;13.10;;;;;;;;;;5098925;28;20044;-65
2021/10/29 05:56:03;;;;;;;25.25;13.23;;;;;;;;;;5085833;28;20031;-65
2021/10/29 05:58:29;;;;;;;25.23;13.93;;;;;;;;;;5084247;28;20024;-65
2021/10/29 06:00:55;;;;;;;28.20;13.40;;;;;;;;;;5101613;28;20104;-65
2021/10/29 06:03:21;;;;;;;26.48;13.38;;;;;;;;;;5101043;28;20047;-65
2021/10/29 06:05:50;;;;;;;23.05;12.65;;;;;;;;;;5099881;28;20020;-65
2021/10/29 06:08:17;;;;;;;24.90;13.30;;;;;;;;;;5076328;28;20094;-66
2021/10/29 06:10:43;;;;;;;24.42;11.57;;;;;;;;;;5093650;28;20024;-65
2021/10/29 06:13:09;;;;;;;23.60;12.63;;;;;;;;;;5072544;28;20055;-64
2021/10/29 06:15:36;;;;;;;27.75;12.52;;;;;;;;;;5072222;28;20039;-64
2021/10/29 06:18:05;;;;;;;22.08;11.98;;;;;;;;;;5072909;28;20471;-65
2021/10/29 06:20:32;;;;;;;25.13;12.52;;;;;;;;;;5072204;28;20364;-65
2021/10/29 06:22:58;;;;;;;25.58;12.30;;;;;;;;;;5053903;28;20032;-64
2021/10/29 06:25:29;;;;;;;26.75;12.18;;;;;;;;;;5071688;28;20472;-64
2021/10/29 06:30:54;;;;;;;;;;;;;;;;;;5057473;28;20472;-65
2021/10/29 06:33:23;;;;;;;24.40;13.25;;;;;;;;;;5091157;28;19926;-65
2021/10/29 06:35:49;;;;;;;23.88;11.90;;;;;;;;;;5091544;28;20076;-64
2021/10/29 06:38:15;;;;;;;26.70;13.35;;;;;;;;;;5073400;28;20439;-65
2021/10/29 06:40:44;;;;;;;21.90;11.77;;;;;;;;;;5073223;28;20042;-65
2021/10/29 06:43:16;;;;;;;26.13;13.77;;;;;;;;;;5091629;28;20020;-65
2021/10/29 06:48:48;;;;;;;22.80;11.68;;;;;;;;;;5091488;28;20035;-65
2021/10/29 07:40:50;;;;;;;20.33;11.60;;;;;;;;;;5090523;28;20058;-65
2021/10/29 07:43:28;;;;;;;21.52;11.35;;;;;;;;;;5090640;28;20111;-67
2021/10/29 07:45:54;;;;;;;19.50;10.27;;;;;;;;;;5090589;28;20290;-65
2021/10/29 07:48:20;;;;;;;18.52;11.05;;;;;;;;;;5088462;28;20099;-65
2021/10/29 07:50:46;;;;;;;21.30;11.57;;;;;;;;;;5082349;28;20020;-66
2021/10/29 07:53:12;;;;;;;22.23;11.52;;;;;;;;;;5072406;28;20073;-68
2021/10/29 07:55:38;;;;;;;22.92;11.18;;;;;;;;;;5090652;28;20420;-68
2021/10/29 07:58:05;;;;;;;21.48;11.23;;;;;;;;;;5090375;28;20020;-69
2021/10/29 08:00:32;;;;;;;20.25;11.35;;;;;;;;;;5090406;28;20059;-68
2021/10/29 08:03:00;;;;;;;18.98;11.70;;;;;;;;;;5075370;28;20238;-66
2021/10/29 08:05:26;;;;;;;20.55;11.23;;;;;;;;;;5070287;28;20021;-66
2021/10/29 08:07:52;;;;;;;21.67;11.52;;;;;;;;;;5070989;28;20044;-66
2021/10/29 08:10:19;;;;;;;21.15;11.95;;;;;;;;;;5052634;28;20213;-66
2021/10/29 08:12:45;;;;;;;20.75;12.20;;;;;;;;;;5073800;28;20036;-66
2021/10/29 08:15:11;;;;;;;21.60;11.68;;;;;;;;;;5056615;28;20031;-66
2021/10/29 08:17:38;;;;;;;21.67;11.70;;;;;;;;;;5082144;28;20028;-66
2021/10/29 08:20:05;;;;;;;24.20;10.88;;;;;;;;;;5058441;28;20029;-65
2021/10/29 08:22:32;;;;;;;26.45;11.95;;;;;;;;;;5074234;28;20021;-66
2021/10/29 08:24:58;;;;;;;21.90;11.95;;;;;;;;;;5074005;28;20032;-65
2021/10/29 08:27:25;;;;;;;19.38;12.10;;;;;;;;;;5074164;28;20020;-65
2021/10/29 08:29:51;;;;;;;21.88;11.85;;;;;;;;;;5061168;28;20067;-66
2021/10/29 08:32:17;;;;;;;21.17;12.43;;;;;;;;;;5082398;28;20114;-65
2021/10/29 08:34:43;;;;;;;19.55;11.75;;;;;;;;;;5088369;28;20059;-66
2021/10/29 08:37:10;;;;;;;20.15;11.45;;;;;;;;;;5093659;28;20502;-66
2021/10/29 08:39:38;;;;;;;21.52;11.98;;;;;;;;;;5075842;28;20426;-67
2021/10/29 08:42:05;;;;;;;21.92;12.13;;;;;;;;;;5093958;28;20020;-61
2021/10/29 08:44:32;;;;;;;29.02;12.73;;;;;;;;;;5093991;28;20027;-66
2021/10/29 08:47:01;;;;;;;22.95;12.27;;;;;;;;;;5093907;28;20032;-65
2021/10/29 08:49:28;;;;;;;20.88;13.05;;;;;;;;;;5093690;28;20031;-66
2021/10/29 08:51:54;;;;;;;21.83;11.90;;;;;;;;;;5093689;28;20039;-66
2021/10/29 08:54:20;;;;;;;19.50;12.23;;;;;;;;;;5093306;28;20035;-67
2021/10/29 08:56:46;;;;;;;20.88;11.77;;;;;;;;;;5093725;28;20063;-66
2021/10/29 08:59:20;;;;;;;21.92;11.73;;;;;;;;;;5093372;28;20062;-66
2021/10/29 09:02:02;;;;;;;19.90;11.07;;;;;;;;;;5075401;28;20020;-67
2021/10/29 09:04:38;;;;;;;19.48;11.68;;;;;;;;;;5093631;28;20210;-66
2021/10/29 09:31:23;;;;;;;20.80;12.10;;;;;;;;;;5093252;28;20026;-66
2021/10/29 09:32:22;;;;;;;20.50;12.23;;;;;;;;;;5092955;28;20039;-68
2021/10/29 09:35:08;;;;;;;20.10;12.18;;;;;;;;;;5092754;28;20012;-66
2021/10/29 09:37:52;;;;;;;21.10;12.95;;;;;;;;;;5074232;28;20028;-67
2021/10/29 09:40:21;;;;;;;20.13;11.45;;;;;;;;;;5071533;28;20028;-67
2021/10/29 09:42:48;;;;;;;20.33;11.63;;;;;;;;;;5063036;28;20020;-67
2021/10/29 09:45:20;;;;;;;20.05;11.40;;;;;;;;;;5079353;28;20144;-66
2021/10/29 09:47:50;;;;;;;19.10;11.55;;;;;;;;;;5054758;28;20025;-66
2021/10/29 09:50:25;;;;;;;20.50;12.32;;;;;;;;;;5072337;28;20108;-66
2021/10/29 09:53:24;;;;;;;18.85;11.88;;;;;;;;;;5082117;28;20211;-66
2021/10/29 09:55:59;;;;;;;19.52;12.48;;;;;;;;;;5091913;28;20024;-67
2021/10/29 09:58:25;;;;;;;18.52;11.10;;;;;;;;;;5054390;28;20072;-67
2021/10/29 10:00:52;;;;;;;19.35;11.57;;;;;;;;;;5090374;23;20116;-71
2021/10/29 10:03:19;;;;;;;18.70;12.70;;;;;;;;;;5092207;28;20088;-68
2021/10/29 10:05:46;;;;;;;22.05;12.10;;;;;;;;;;5112539;28;20075;-68
2021/10/29 10:08:12;;;;;;;19.17;12.10;;;;;;;;;;5094446;28;20351;-68
2021/10/29 10:10:39;;;;;;;21.77;12.60;;;;;;;;;;5113290;28;20110;-68
2021/10/29 10:13:05;;;;;;;21.05;12.35;;;;;;;;;;5094600;28;20445;-68
2021/10/29 10:15:31;;;;;;;21.05;12.90;;;;;;;;;;5112775;28;20019;-68
2021/10/29 10:17:58;;;;;;;19.25;12.88;;;;;;;;;;5112612;28;20024;-68
2021/10/29 10:20:25;;;;;;;24.33;13.45;;;;;;;;;;5094188;28;20019;-69
2021/10/29 10:22:51;;;;;;;17.25;11.13;;;;;;;;;;5112850;28;20024;-68
2021/10/29 10:46:53;;;;;;;18.85;12.95;;;;;;;;;;5102661;28;20525;-69
2021/10/29 10:49:21;;;;;;;20.00;12.18;;;;;;;;;;5101124;28;20022;-70
2021/10/29 10:51:59;;;;;;;18.60;12.70;;;;;;;;;;5086475;28;20020;-70
2021/10/29 10:54:36;;;;;;;19.52;12.80;;;;;;;;;;5081890;28;20031;-70
2021/10/29 10:59:49;;;;;;;18.08;13.52;;;;;;;;;;5111648;28;20038;-68
2021/10/29 11:10:58;;;;;;;19.40;12.35;;;;;;;;;;5110141;28;20031;-65
2021/10/29 11:13:26;;;;;;;17.02;11.07;;;;;;;;;;5110958;28;20023;-66
2021/10/29 11:16:02;;;;;;;21.93;12.60;;;;;;;;;;5084192;28;20023;-66
2021/10/29 11:18:38;;;;;;;18.63;12.25;;;;;;;;;;5099248;28;20020;-68
2021/10/29 11:21:08;;;;;;;22.67;12.77;;;;;;;;;;5083301;28;20016;-65
2021/10/29 11:23:35;;;;;;;18.90;13.27;;;;;;;;;;5102047;28;20016;-67
2021/10/29 11:26:05;;;;;;;18.42;12.60;;;;;;;;;;5084018;28;20436;-67
2021/10/29 11:28:39;;;;;;;18.80;12.15;;;;;;;;;;5102352;28;20019;-65
2021/10/29 11:31:07;;;;;;;18.00;13.00;;;;;;;;;;5081814;28;20520;-71
2021/10/29 11:33:33;;;;;;;17.52;12.60;;;;;;;;;;5100794;28;20419;-67
2021/10/29 11:36:05;;;;;;;18.52;12.77;;;;;;;;;;5082147;28;20058;-68
2021/10/29 11:38:32;;;;;;;22.00;13.23;;;;;;;;;;5080516;28;20016;-68
2021/10/29 11:40:59;;;;;;;19.40;13.52;;;;;;;;;;5080238;28;20106;-64
2021/10/29 11:43:27;;;;;;;16.95;12.20;;;;;;;;;;5080470;28;20016;-67
2021/10/29 11:45:53;;;;;;;23.27;13.63;;;;;;;;;;5100266;28;20323;-66
2021/10/29 11:48:19;;;;;;;16.98;12.50;;;;;;;;;;5073754;28;20119;-68
2021/10/29 11:50:46;;;;;;;24.13;13.15;;;;;;;;;;5072330;28;20475;-68
2021/10/29 11:53:14;;;;;;;17.85;12.82;;;;;;;;;;5072266;28;20054;-65
2021/10/29 11:55:50;;;;;;;20.42;12.65;;;;;;;;;;5072671;28;20024;-67
2021/10/29 12:01:06;;;;;;;19.67;12.60;;;;;;;;;;5103403;28;20032;-68
2021/10/29 12:09:21;;;;;;;19.67;13.57;;;;;;;;;;5090272;28;20020;-67
2021/10/29 12:11:53;;;;;;;17.40;12.50;;;;;;;;;;5091362;28;20029;-66
2021/10/29 12:14:19;;;;;;;16.63;12.57;;;;;;;;;;5072262;28;20024;-67
2021/10/29 12:16:46;;;;;;;17.80;13.55;;;;;;;;;;5072027;28;20436;-65
2021/10/29 12:19:13;;;;;;;17.70;14.10;;;26.50;80.40;;;;;;5072596;28;20463;-64
2021/10/29 12:21:44;;;;;;;18.15;14.07;;;;;;;;;;5089231;28;20028;-65
2021/10/29 12:24:15;;;;;;;20.25;14.25;;;19.80;99.90;;;;;;5088920;28;20020;-66
2021/10/29 12:26:41;;;;;;;19.58;14.38;;;20.40;99.90;;;;;;5089818;28;20027;-66
2021/10/29 12:29:12;;;;;;;21.65;13.80;;;20.30;99.90;;;;;;5089763;28;20021;-67
2021/10/29 12:32:17;;;;;;;17.23;13.80;;;20.10;99.90;;;;;;5089598;28;20047;-65
2021/10/29 12:54:09;;;;;;;18.48;13.65;;;;;;;;;;5110444;28;20038;-64
2021/10/29 13:02:03;;;;;;;17.60;13.43;;;21.80;99.90;;;;;;5114546;28;20031;-66
2021/10/29 13:04:44;;;;;;;20.02;14.68;;;21.60;99.90;;;;;;5114312;28;20447;-66
2021/10/29 13:07:11;;;;;;;18.30;14.70;;;;;;;;;;5114487;28;20114;-65
2021/10/29 13:09:38;;;;;;;20.08;15.25;;;21.10;99.90;;;;;;5114613;28;20034;-66
2021/10/29 13:12:23;;;;;;;18.75;14.38;;;;;;;;;;5114137;28;20047;-68
2021/10/29 13:14:59;;;;;;;21.80;15.57;;;;;;;;;;5114116;28;20035;-65
2021/10/29 13:17:36;;;;;;;19.77;14.60;;;;;;;;;;5114141;28;20019;-65
2021/10/29 14:04:04;;;;;;;17.35;14.25;;;;;;;;;;5113766;28;20165;-67
2021/10/29 14:28:39;;;;;;;17.23;13.73;;;26.10;98.20;;;;;;5113000;28;20196;-65
2021/10/29 14:33:56;;;;;;;19.80;15.18;;;25.90;96.10;;;;;;5112663;28;20612;-67
2021/10/29 14:36:25;;;;;;;19.48;14.75;;;26.60;96.10;;;;;;5112898;28;20043;-66
2021/10/29 14:38:57;;;;;;;19.95;14.60;;;26.40;96.10;;;;;;5094601;28;20028;-65
2021/10/29 14:42:10;;;;;;;19.05;15.30;;;26.70;94.80;;;;;;5112999;28;20090;-67
2021/10/29 14:44:23;;;;;;;19.10;15.18;;;26.90;95.20;;;;;;5101043;28;20127;-67
2021/10/29 14:47:08;;;;;;;18.50;15.40;;;27.00;94.70;;;;;;5112697;28;20104;-65
2021/10/29 14:52:25;;;;;;;19.80;14.40;;;27.30;94.40;;;;;;5112734;28;20027;-65
2021/10/29 15:27:45;;;;;;;19.08;14.35;;;;;;;;;;5097062;28;20399;-65
2021/10/29 15:41:21;;;;;;;17.80;12.73;;;;;;;;;;5089211;28;20093;-65
2021/10/29 15:43:52;;;;;;;20.13;13.10;;;;;;;;;;5070112;28;20043;-66
2021/10/29 15:46:24;;;;;;;17.40;12.77;;;;;;;;;;5088502;28;20016;-66
2021/10/29 15:49:07;;;;;;;19.25;12.55;;;;;;;;;;5089058;28;20020;-67
2021/10/29 15:51:35;;;;;;;16.52;12.77;;;;;;;;;;5088774;28;20053;-64
2021/10/29 15:54:04;;;;;;;16.80;12.43;;;;;;;;;;5070917;28;20036;-68
2021/10/29 15:56:40;;;;;;;18.15;12.63;;;;;;;;;;5093212;28;20470;-66
2021/10/29 16:01:44;;;;;;;16.60;12.32;;;;;;;;;;5095672;22;20475;-64
2021/10/29 16:17:55;;;;;;;18.95;12.88;;;;;;;;;;5047707;28;20094;-63
2021/10/29 16:20:22;;;;;;;19.33;12.18;;;;;;;;;;5046682;28;20071;-63
2021/10/29 16:22:49;;;;;;;17.15;12.63;;;;;;;;;;5047478;28;20017;-64
2021/10/29 16:25:18;;;;;;;20.05;12.88;;;;;;;;;;5045293;28;20044;-64
2021/10/29 16:27:53;;;;;;;20.38;12.27;;;;;;;;;;5046792;28;20024;-64
2021/10/29 16:30:23;;;;;;;19.73;12.68;;;;;;;;;;5046700;28;20029;-64
2021/10/29 16:35:19;;;;;;;18.75;13.00;;;;;;;;;;5050718;28;20057;-63
2021/10/29 16:37:46;;;;;;;18.67;11.85;;;;;;;;;;5050539;28;20028;-63
2021/10/29 16:40:12;;;;;;;18.20;11.70;;;;;;;;;;5049978;28;20021;-64
2021/10/29 16:42:38;;;;;;;18.80;11.85;;;;;;;;;;5050483;28;20017;-65
2021/10/29 16:45:09;;;;;;;20.23;13.18;;;;;;;;;;5048614;28;20036;-66
2021/10/29 16:47:35;;;;;;;17.42;11.85;;;;;;;;;;5048241;28;20139;-63
2021/10/29 16:50:02;;;;;;;17.65;11.55;;;;;;;;;;5050178;28;20114;-64
2021/10/29 16:52:28;;;;;;;20.60;12.95;;;;;;;;;;5050490;28;20035;-59
2021/10/29 16:54:54;;;;;;;18.38;12.40;;;;;;;;;;5050369;28;20507;-64
2021/10/29 16:57:20;;;;;;;19.15;12.13;;;;;;;;;;5051983;28;20036;-65
2021/10/29 16:59:46;;;;;;;18.13;12.50;;;;;;;;;;5048814;28;20025;-64
2021/10/29 17:02:12;;;;;;;21.00;13.68;;;;;;;;;;5050457;28;20502;-64
2021/10/29 17:04:38;;;;;;;21.92;12.20;;;;;;;;;;5050374;28;20032;-64
2021/10/29 17:07:05;;;;;;;20.02;11.60;;;;;;;;;;5050313;28;20028;-66
2021/10/29 17:09:31;;;;;;;18.90;12.00;;;;;;;;;;5049491;28;20032;-66
2021/10/29 17:11:57;;;;;;;18.45;11.27;;;;;;;;;;5051047;28;20473;-67
2021/10/29 17:14:23;;;;;;;20.05;12.23;;;;;;;;;;5049207;28;20194;-66
2021/10/29 17:16:49;;;;;;;21.33;11.98;;;;;;;;;;5050875;28;20404;-67
2021/10/29 17:19:15;;;;;;;18.08;11.88;;;;;;;;;;5050559;28;20043;-65
2021/10/29 17:21:42;;;;;;;17.63;11.88;;;;;;;;;;5050369;28;20075;-65
2021/10/29 17:24:08;;;;;;;20.65;12.52;;;;;;;;;;5050079;28;20029;-67
2021/10/29 17:26:35;;;;;;;19.55;11.95;;;;;;;;;;5048844;28;20025;-66
2021/10/29 17:29:02;;;;;;;18.88;11.23;;;;;;;;;;5050493;28;20056;-67
2021/10/29 17:31:28;;;;;;;18.00;11.45;;;;;;;;;;5050753;28;20111;-67
2021/10/29 17:33:54;;;;;;;19.30;11.73;;;;;;;;;;5049137;28;20037;-65
2021/10/29 17:36:20;;;;;;;21.05;12.10;;;;;;;;;;5048935;28;20029;-67
2021/10/29 17:38:47;;;;;;;17.73;11.65;;;;;;;;;;5048661;28;20110;-67
2021/10/29 17:41:13;;;;;;;17.33;11.27;;;;;;;;;;5048055;28;20025;-67
2021/10/29 17:43:39;;;;;;;17.83;11.77;;;;;;;;;;5050185;28;20025;-67
2021/10/29 17:46:05;;;;;;;16.90;11.02;;;;;;;;;;5049228;28;20032;-67
2021/10/29 17:48:32;;;;;;;20.58;12.10;;;;;;;;;;5053831;28;20028;-66
2021/10/29 17:50:59;;;;;;;19.45;11.55;;;;;;;;;;5053244;28;20378;-66
2021/10/29 17:53:28;;;;;;;19.65;11.70;;;;;;;;;;5046666;28;20096;-67
2021/10/29 17:55:57;;;;;;;18.23;11.98;;;;;;;;;;5046864;28;20112;-65
2021/10/29 17:58:23;;;;;;;20.02;12.77;;;;;;;;;;5048678;28;20202;-66
2021/10/29 18:00:49;;;;;;;18.38;11.85;;;;;;;;;;5048329;28;20449;-66
2021/10/29 18:03:15;;;;;;;18.65;11.80;;;;;;;;;;5047080;28;20021;-67
2021/10/29 18:05:41;;;;;;;19.13;12.80;;;;;;;;;;5047947;28;20036;-67
2021/10/29 18:08:08;;;;;;;20.42;11.70;;;;;;;;;;5048762;28;20406;-66
2021/10/29 18:10:35;;;;;;;18.55;12.15;;;;;;;;;;5049194;28;20035;-68
2021/10/29 18:13:01;;;;;;;18.98;12.18;;;;;;;;;;5047649;28;20341;-66
2021/10/29 18:15:28;;;;;;;21.17;12.52;;;;;;;;;;5048979;28;20037;-67
2021/10/29 18:17:54;;;;;;;19.42;12.13;;;;;;;;;;5049182;28;20052;-68
2021/10/29 18:20:20;;;;;;;21.17;13.38;;;;;;;;;;5047680;28;20502;-67
2021/10/29 18:22:46;;;;;;;20.60;12.40;;;;;;;;;;5048347;28;20036;-67
2021/10/29 18:25:12;;;;;;;20.60;12.35;;;;;;;;;;5048567;28;20025;-69
2021/10/29 18:27:39;;;;;;;19.45;12.43;;;;;;;;;;5047578;28;20116;-67
2021/10/29 18:30:05;;;;;;;18.92;12.27;;;;;;;;;;5047233;28;20040;-67
2021/10/29 18:32:31;;;;;;;19.17;12.32;;;;;;;;;;5047841;28;20486;-67
2021/10/29 18:34:57;;;;;;;26.35;12.68;;;;;;;;;;5047442;28;20040;-67
2021/10/29 18:37:24;;;;;;;19.02;11.98;;;;;;;;;;5047425;28;20040;-67
2021/10/29 18:39:51;;;;;;;19.00;12.18;;;;;;;;;;5048415;28;20464;-64
2021/10/29 18:42:18;;;;;;;20.25;12.77;;;;;;;;;;5048600;28;20511;-63
2021/10/29 18:44:44;;;;;;;18.55;12.05;;;;;;;;;;5047069;28;20060;-65
2021/10/29 18:47:10;;;;;;;22.25;12.52;;;;;;;;;;5048753;28;20053;-67
2021/10/29 18:49:37;;;;;;;19.20;11.57;;;;;;;;;;5048439;28;20032;-66
2021/10/29 18:52:03;;;;;;;20.55;12.02;;;;;;;;;;5048640;28;20052;-66
2021/10/29 18:54:29;;;;;;;19.33;12.32;;;;;;;;;;5047779;28;20029;-66
2021/10/29 18:56:56;;;;;;;20.33;12.98;;;;;;;;;;5055578;28;20024;-66
2021/10/29 18:59:22;;;;;;;20.60;12.25;;;;;;;;;;5068156;28;20074;-67
2021/10/29 19:01:50;;;;;;;21.10;12.70;;;;;;;;;;5068321;28;20032;-67
2021/10/29 19:04:16;;;;;;;23.85;13.05;;;;;;;;;;5067952;28;20108;-67